sensor_id;sensor_type;location;lat;lon;timestamp;pressure;altitude;pressure_sealevel;temperature;humidity
13934;BME280;7039;52.168;9.866;2022-08-02T00:02:03;100965.59;;;15.52;88.40
13934;BME280;7039;52.168;9.866;2022-08-02T00:04:30;100956.13;;;15.50;87.82
13934;BME280;7039;52.168;9.866;2022-08-02T00:06:56;100953.56;;;15.62;87.27
13934;BME280;7039;52.168;9.866;2022-08-02T00:09:23;100943.59;;;15.68;87.14
13934;BME280;7039;52.168;9.866;2022-08-02T00:11:49;100940.69;;;15.72;86.78
13934;BME280;7039;52.168;9.866;2022-08-02T00:14:15;100941.81;;;15.68;86.62
13934;BME280;7039;52.168;9.866;2022-08-02T00:16:42;100933.19;;;15.52;86.97
13934;BME280;7039;52.168;9.866;2022-08-02T00:19:10;100930.66;;;15.50;87.17
13934;BME280;7039;52.168;9.866;2022-08-02T00:21:36;100928.31;;;15.45;87.26
13934;BME280;7039;52.168;9.866;2022-08-02T00:24:03;100930.41;;;15.40;87.26
13934;BME280;7039;52.168;9.866;2022-08-02T00:26:30;100926.78;;;15.29;87.46
13934;BME280;7039;52.168;9.866;2022-08-02T00:28:56;100929.88;;;15.07;88.57
13934;BME280;7039;52.168;9.866;2022-08-02T00:31:23;100932.31;;;14.95;89.30
13934;BME280;7039;52.168;9.866;2022-08-02T00:33:49;100924.41;;;14.67;90.19
13934;BME280;7039;52.168;9.866;2022-08-02T00:36:17;100935.09;;;14.64;90.72
13934;BME280;7039;52.168;9.866;2022-08-02T00:38:44;100931.66;;;14.47;90.99
13934;BME280;7039;52.168;9.866;2022-08-02T00:41:14;100933.81;;;14.40;91.59
13934;BME280;7039;52.168;9.866;2022-08-02T00:43:41;100935.47;;;14.41;91.49
13934;BME280;7039;52.168;9.866;2022-08-02T00:46:08;100942.59;;;14.39;91.81
13934;BME280;7039;52.168;9.866;2022-08-02T00:48:35;100942.66;;;14.24;92.38
13934;BME280;7039;52.168;9.866;2022-08-02T00:51:01;100949.53;;;14.26;91.94
13934;BME280;7039;52.168;9.866;2022-08-02T00:53:31;100950.16;;;14.30;92.06
13934;BME280;7039;52.168;9.866;2022-08-02T00:55:58;100954.59;;;14.29;92.44
13934;BME280;7039;52.168;9.866;2022-08-02T00:58:25;100956.97;;;14.48;92.03
13934;BME280;7039;52.168;9.866;2022-08-02T01:00:51;100954.03;;;14.69;91.22
13934;BME280;7039;52.168;9.866;2022-08-02T01:03:18;100957.34;;;14.72;89.94
13934;BME280;7039;52.168;9.866;2022-08-02T01:05:44;100954.72;;;14.72;89.75
13934;BME280;7039;52.168;9.866;2022-08-02T01:08:10;100953.88;;;14.72;89.86
13934;BME280;7039;52.168;9.866;2022-08-02T01:10:38;100953.41;;;14.79;89.36
13934;BME280;7039;52.168;9.866;2022-08-02T01:13:05;100950.41;;;14.41;91.04
13934;BME280;7039;52.168;9.866;2022-08-02T01:15:32;100945.69;;;14.32;91.36
13934;BME280;7039;52.168;9.866;2022-08-02T01:18:03;100951.72;;;14.48;90.17
13934;BME280;7039;52.168;9.866;2022-08-02T01:20:49;100951.13;;;14.59;89.83
13934;BME280;7039;52.168;9.866;2022-08-02T01:23:34;100945.38;;;14.52;89.33
13934;BME280;7039;52.168;9.866;2022-08-02T01:26:22;100943.75;;;14.50;89.27
13934;BME280;7039;52.168;9.866;2022-08-02T01:28:59;100937.75;;;14.48;89.11
13934;BME280;7039;52.168;9.866;2022-08-02T01:31:31;100938.66;;;14.32;89.12
13934;BME280;7039;52.168;9.866;2022-08-02T01:34:02;100933.19;;;14.21;89.99
13934;BME280;7039;52.168;9.866;2022-08-02T01:36:34;100939.88;;;14.27;90.50
13934;BME280;7039;52.168;9.866;2022-08-02T01:39:02;100936.56;;;14.23;90.29
13934;BME280;7039;52.168;9.866;2022-08-02T01:41:30;100928.88;;;14.20;90.22
13934;BME280;7039;52.168;9.866;2022-08-02T01:44:00;100937.84;;;14.16;90.03
13934;BME280;7039;52.168;9.866;2022-08-02T01:46:29;100939.28;;;14.22;90.16
13934;BME280;7039;52.168;9.866;2022-08-02T01:49:02;100929.91;;;14.17;90.20
13934;BME280;7039;52.168;9.866;2022-08-02T01:51:30;100935.06;;;14.03;90.72
13934;BME280;7039;52.168;9.866;2022-08-02T01:54:17;100931.28;;;14.09;90.56
13934;BME280;7039;52.168;9.866;2022-08-02T01:56:46;100937.84;;;14.16;89.86
13934;BME280;7039;52.168;9.866;2022-08-02T01:59:19;100940.78;;;14.26;89.43
13934;BME280;7039;52.168;9.866;2022-08-02T02:01:48;100939.09;;;14.25;89.03
13934;BME280;7039;52.168;9.866;2022-08-02T02:04:16;100941.06;;;14.21;88.75
13934;BME280;7039;52.168;9.866;2022-08-02T02:06:44;100937.97;;;13.98;89.76
13934;BME280;7039;52.168;9.866;2022-08-02T02:09:13;100941.69;;;14.10;89.91
13934;BME280;7039;52.168;9.866;2022-08-02T02:11:42;100937.28;;;14.11;89.87
13934;BME280;7039;52.168;9.866;2022-08-02T02:14:10;100943.66;;;14.21;89.07
13934;BME280;7039;52.168;9.866;2022-08-02T02:16:41;100939.53;;;14.17;89.32
13934;BME280;7039;52.168;9.866;2022-08-02T02:19:11;100941.66;;;14.26;88.90
13934;BME280;7039;52.168;9.866;2022-08-02T02:21:41;100935.38;;;14.29;88.59
13934;BME280;7039;52.168;9.866;2022-08-02T02:24:08;100930.31;;;14.10;88.91
13934;BME280;7039;52.168;9.866;2022-08-02T07:43:32;100864.28;;;18.93;78.59
13934;BME280;7039;52.168;9.866;2022-08-02T07:45:59;100866.56;;;19.09;78.57
13934;BME280;7039;52.168;9.866;2022-08-02T07:48:25;100871.34;;;19.26;78.37
13934;BME280;7039;52.168;9.866;2022-08-02T07:53:30;100876.28;;;19.63;77.69
13934;BME280;7039;52.168;9.866;2022-08-02T07:55:57;100865.09;;;19.71;77.57
13934;BME280;7039;52.168;9.866;2022-08-02T08:33:24;100857.63;;;21.41;71.56
13934;BME280;7039;52.168;9.866;2022-08-02T08:35:51;100859.03;;;21.55;68.46
13934;BME280;7039;52.168;9.866;2022-08-02T08:45:03;100848.84;;;21.99;68.26
13934;BME280;7039;52.168;9.866;2022-08-02T08:47:33;100846.56;;;22.14;64.79
13934;BME280;7039;52.168;9.866;2022-08-02T08:50:04;100841.28;;;22.04;66.04
13934;BME280;7039;52.168;9.866;2022-08-02T08:52:35;100829.81;;;21.94;67.56
13934;BME280;7039;52.168;9.866;2022-08-02T08:55:08;100836.53;;;21.98;67.92
13934;BME280;7039;52.168;9.866;2022-08-02T08:57:39;100835.97;;;22.04;68.10
13934;BME280;7039;52.168;9.866;2022-08-02T09:00:07;100839.88;;;22.19;66.99
13934;BME280;7039;52.168;9.866;2022-08-02T09:02:39;100833.69;;;22.38;66.56
13934;BME280;7039;52.168;9.866;2022-08-02T09:08:05;100838.34;;;22.17;68.88
13934;BME280;7039;52.168;9.866;2022-08-02T09:10:37;100840.28;;;22.15;68.17
13934;BME280;7039;52.168;9.866;2022-08-02T09:13:12;100825.91;;;21.98;68.63
13934;BME280;7039;52.168;9.866;2022-08-02T09:18:44;100823.78;;;22.11;67.48
13934;BME280;7039;52.168;9.866;2022-08-02T09:21:12;100824.34;;;22.24;67.03
13934;BME280;7039;52.168;9.866;2022-08-02T09:23:42;100819.44;;;22.29;64.68
13934;BME280;7039;52.168;9.866;2022-08-02T09:26:10;100823.47;;;22.34;64.38
13934;BME280;7039;52.168;9.866;2022-08-02T09:28:38;100827.78;;;22.44;64.95
13934;BME280;7039;52.168;9.866;2022-08-02T09:31:08;100820.91;;;22.51;65.22
13934;BME280;7039;52.168;9.866;2022-08-02T09:33:37;100820.84;;;22.71;63.79
13934;BME280;7039;52.168;9.866;2022-08-02T09:36:05;100821.94;;;22.68;63.52
13934;BME280;7039;52.168;9.866;2022-08-02T09:38:33;100820.59;;;22.92;64.20
13934;BME280;7039;52.168;9.866;2022-08-02T09:41:03;100819.13;;;23.07;62.83
13934;BME280;7039;52.168;9.866;2022-08-02T09:43:39;100811.53;;;23.12;61.25
13934;BME280;7039;52.168;9.866;2022-08-02T09:46:11;100810.69;;;23.12;56.45
13934;BME280;7039;52.168;9.866;2022-08-02T09:48:53;100824.91;;;23.21;57.73
13934;BME280;7039;52.168;9.866;2022-08-02T09:51:22;100822.69;;;23.16;58.28
13934;BME280;7039;52.168;9.866;2022-08-02T09:53:50;100818.06;;;23.18;56.66
13934;BME280;7039;52.168;9.866;2022-08-02T09:56:20;100819.22;;;23.33;58.54
13934;BME280;7039;52.168;9.866;2022-08-02T09:58:47;100813.75;;;23.17;55.32
13934;BME280;7039;52.168;9.866;2022-08-02T10:01:16;100806.91;;;23.32;57.44
13934;BME280;7039;52.168;9.866;2022-08-02T10:03:56;100811.47;;;23.58;57.03
13934;BME280;7039;52.168;9.866;2022-08-02T10:06:24;100806.00;;;23.42;55.27
13934;BME280;7039;52.168;9.866;2022-08-02T10:08:50;100803.09;;;23.53;57.19
13934;BME280;7039;52.168;9.866;2022-08-02T10:11:20;100803.47;;;23.58;56.44
13934;BME280;7039;52.168;9.866;2022-08-02T10:13:48;100806.03;;;23.68;56.48
13934;BME280;7039;52.168;9.866;2022-08-02T10:16:16;100794.88;;;23.64;57.06
13934;BME280;7039;52.168;9.866;2022-08-02T10:18:44;100793.75;;;23.67;56.82
13934;BME280;7039;52.168;9.866;2022-08-02T10:21:15;100795.03;;;23.81;54.01
13934;BME280;7039;52.168;9.866;2022-08-02T10:23:45;100808.47;;;23.61;54.47
13934;BME280;7039;52.168;9.866;2022-08-02T10:26:18;100800.72;;;23.68;55.20
13934;BME280;7039;52.168;9.866;2022-08-02T10:28:48;100796.56;;;23.83;56.15
13934;BME280;7039;52.168;9.866;2022-08-02T10:31:19;100798.16;;;23.76;52.86
13934;BME280;7039;52.168;9.866;2022-08-02T10:33:50;100789.25;;;23.85;52.41
13934;BME280;7039;52.168;9.866;2022-08-02T10:36:18;100795.03;;;24.07;53.36
13934;BME280;7039;52.168;9.866;2022-08-02T10:38:45;100798.19;;;24.28;50.04
13934;BME280;7039;52.168;9.866;2022-08-02T10:41:12;100792.38;;;24.33;50.43
13934;BME280;7039;52.168;9.866;2022-08-02T10:43:43;100789.66;;;24.51;51.18
13934;BME280;7039;52.168;9.866;2022-08-02T10:46:29;100788.88;;;24.06;49.08
13934;BME280;7039;52.168;9.866;2022-08-02T10:49:08;100781.78;;;24.15;50.10
13934;BME280;7039;52.168;9.866;2022-08-02T10:54:40;100785.88;;;24.35;48.66
13934;BME280;7039;52.168;9.866;2022-08-02T10:57:14;100779.72;;;24.69;49.54
13934;BME280;7039;52.168;9.866;2022-08-02T10:59:42;100778.22;;;24.67;49.55
13934;BME280;7039;52.168;9.866;2022-08-02T11:02:10;100780.25;;;24.81;48.62
13934;BME280;7039;52.168;9.866;2022-08-02T11:05:01;100778.94;;;24.85;48.48
13934;BME280;7039;52.168;9.866;2022-08-02T11:07:35;100780.19;;;25.07;49.25
13934;BME280;7039;52.168;9.866;2022-08-02T11:10:29;100782.84;;;25.07;45.94
13934;BME280;7039;52.168;9.866;2022-08-02T11:12:58;100786.06;;;25.27;45.87
13934;BME280;7039;52.168;9.866;2022-08-02T11:15:25;100776.22;;;25.36;46.96
13934;BME280;7039;52.168;9.866;2022-08-02T11:17:54;100784.41;;;25.42;48.54
13934;BME280;7039;52.168;9.866;2022-08-02T11:20:22;100772.91;;;25.67;46.74
13934;BME280;7039;52.168;9.866;2022-08-02T11:22:50;100778.56;;;25.88;47.67
13934;BME280;7039;52.168;9.866;2022-08-02T11:25:30;100791.53;;;26.16;47.20
13934;BME280;7039;52.168;9.866;2022-08-02T11:27:59;100775.38;;;25.84;45.85
13934;BME280;7039;52.168;9.866;2022-08-02T11:30:32;100781.41;;;26.03;46.51
13934;BME280;7039;52.168;9.866;2022-08-02T11:33:00;100780.06;;;26.07;46.23
13934;BME280;7039;52.168;9.866;2022-08-02T11:35:31;100779.03;;;26.08;47.18
13934;BME280;7039;52.168;9.866;2022-08-02T11:38:11;100775.03;;;26.04;47.39
13934;BME280;7039;52.168;9.866;2022-08-02T11:40:38;100776.06;;;26.03;48.56
13934;BME280;7039;52.168;9.866;2022-08-02T11:43:15;100779.88;;;26.09;48.23
13934;BME280;7039;52.168;9.866;2022-08-02T11:45:41;100773.19;;;26.13;49.69
13934;BME280;7039;52.168;9.866;2022-08-02T11:48:09;100784.47;;;26.39;49.09
13934;BME280;7039;52.168;9.866;2022-08-02T11:50:36;100773.41;;;26.42;48.38
13934;BME280;7039;52.168;9.866;2022-08-02T11:53:11;100769.84;;;26.66;47.66
13934;BME280;7039;52.168;9.866;2022-08-02T11:55:38;100768.44;;;26.79;46.70
13934;BME280;7039;52.168;9.866;2022-08-02T11:58:06;100772.44;;;26.83;47.31
13934;BME280;7039;52.168;9.866;2022-08-02T12:00:36;100759.84;;;27.15;47.01
13934;BME280;7039;52.168;9.866;2022-08-02T12:03:03;100768.91;;;26.82;47.80
13934;BME280;7039;52.168;9.866;2022-08-02T12:05:32;100764.03;;;26.86;46.25
13934;BME280;7039;52.168;9.866;2022-08-02T12:07:59;100753.19;;;27.34;47.09
13934;BME280;7039;52.168;9.866;2022-08-02T12:10:25;100748.25;;;27.45;45.75
13934;BME280;7039;52.168;9.866;2022-08-02T12:12:53;100756.94;;;27.24;46.11
13934;BME280;7039;52.168;9.866;2022-08-02T12:15:32;100749.84;;;27.08;46.83
13934;BME280;7039;52.168;9.866;2022-08-02T12:17:59;100741.47;;;27.12;46.03
13934;BME280;7039;52.168;9.866;2022-08-02T12:20:45;100741.63;;;27.10;45.95
13934;BME280;7039;52.168;9.866;2022-08-02T12:23:12;100740.63;;;27.34;46.53
13934;BME280;7039;52.168;9.866;2022-08-02T12:25:38;100733.19;;;27.97;45.35
13934;BME280;7039;52.168;9.866;2022-08-02T12:28:13;100731.97;;;28.44;44.48
13934;BME280;7039;52.168;9.866;2022-08-02T12:30:48;100738.38;;;27.99;45.16
13934;BME280;7039;52.168;9.866;2022-08-02T12:33:15;100735.84;;;28.57;43.53
13934;BME280;7039;52.168;9.866;2022-08-02T12:35:42;100736.72;;;28.79;43.95
13934;BME280;7039;52.168;9.866;2022-08-02T12:38:10;100732.41;;;28.63;45.10
13934;BME280;7039;52.168;9.866;2022-08-02T12:40:37;100736.25;;;28.53;44.15
13934;BME280;7039;52.168;9.866;2022-08-02T12:43:06;100730.56;;;28.63;44.46
13934;BME280;7039;52.168;9.866;2022-08-02T12:45:44;100732.59;;;28.61;45.49
13934;BME280;7039;52.168;9.866;2022-08-02T12:48:11;100736.38;;;29.03;45.23
13934;BME280;7039;52.168;9.866;2022-08-02T12:50:38;100739.16;;;29.10;43.51
13934;BME280;7039;52.168;9.866;2022-08-02T12:53:06;100724.09;;;29.15;43.71
13934;BME280;7039;52.168;9.866;2022-08-02T12:55:36;100733.13;;;29.08;43.45
13934;BME280;7039;52.168;9.866;2022-08-02T12:58:05;100719.31;;;29.32;43.91
13934;BME280;7039;52.168;9.866;2022-08-02T13:00:34;100718.66;;;29.30;43.81
13934;BME280;7039;52.168;9.866;2022-08-02T13:03:01;100717.41;;;29.54;43.31
13934;BME280;7039;52.168;9.866;2022-08-02T13:05:28;100722.72;;;29.69;43.17
13934;BME280;7039;52.168;9.866;2022-08-02T13:07:55;100713.66;;;29.27;43.54
13934;BME280;7039;52.168;9.866;2022-08-02T13:10:23;100709.97;;;29.56;43.35
13934;BME280;7039;52.168;9.866;2022-08-02T13:12:51;100704.94;;;29.75;43.12
13934;BME280;7039;52.168;9.866;2022-08-02T13:15:19;100704.81;;;29.83;43.74
13934;BME280;7039;52.168;9.866;2022-08-02T13:17:47;100708.94;;;30.21;42.38
13934;BME280;7039;52.168;9.866;2022-08-02T13:20:14;100699.34;;;30.05;42.22
13934;BME280;7039;52.168;9.866;2022-08-02T13:22:40;100699.56;;;29.75;41.72
13934;BME280;7039;52.168;9.866;2022-08-02T13:25:08;100695.44;;;29.72;41.91
13934;BME280;7039;52.168;9.866;2022-08-02T13:27:35;100697.16;;;30.22;42.17
13934;BME280;7039;52.168;9.866;2022-08-02T13:30:04;100692.97;;;30.60;41.09
13934;BME280;7039;52.168;9.866;2022-08-02T13:32:31;100690.97;;;31.36;40.60
13934;BME280;7039;52.168;9.866;2022-08-02T13:34:58;100687.06;;;31.25;39.07
13934;BME280;7039;52.168;9.866;2022-08-02T13:37:24;100685.78;;;31.74;39.14
13934;BME280;7039;52.168;9.866;2022-08-02T13:39:51;100674.94;;;31.88;37.67
13934;BME280;7039;52.168;9.866;2022-08-02T13:42:18;100674.16;;;32.77;38.07
13934;BME280;7039;52.168;9.866;2022-08-02T13:44:45;100685.03;;;33.89;36.52
13934;BME280;7039;52.168;9.866;2022-08-02T13:47:13;100669.59;;;34.45;34.69
13934;BME280;7039;52.168;9.866;2022-08-02T13:49:40;100666.97;;;34.81;34.46
13934;BME280;7039;52.168;9.866;2022-08-02T13:52:06;100663.69;;;33.38;36.69
13934;BME280;7039;52.168;9.866;2022-08-02T13:54:33;100656.97;;;31.68;37.94
13934;BME280;7039;52.168;9.866;2022-08-02T13:57:00;100657.28;;;32.05;38.09
13934;BME280;7039;52.168;9.866;2022-08-02T13:59:26;100645.53;;;32.31;38.87
13934;BME280;7039;52.168;9.866;2022-08-02T14:01:53;100655.97;;;33.66;36.35
13934;BME280;7039;52.168;9.866;2022-08-02T14:04:22;100653.03;;;34.35;35.25
13934;BME280;7039;52.168;9.866;2022-08-02T14:06:48;100645.44;;;32.83;37.22
13934;BME280;7039;52.168;9.866;2022-08-02T14:09:15;100655.31;;;32.25;38.14
13934;BME280;7039;52.168;9.866;2022-08-02T14:11:42;100657.81;;;31.35;38.79
13934;BME280;7039;52.168;9.866;2022-08-02T14:14:08;100654.16;;;32.01;39.26
13934;BME280;7039;52.168;9.866;2022-08-02T14:16:35;100647.28;;;32.12;38.50
13934;BME280;7039;52.168;9.866;2022-08-02T14:19:02;100652.41;;;32.65;37.50
13934;BME280;7039;52.168;9.866;2022-08-02T14:21:30;100649.97;;;33.39;37.16
13934;BME280;7039;52.168;9.866;2022-08-02T14:23:57;100653.44;;;33.46;37.05
13934;BME280;7039;52.168;9.866;2022-08-02T14:26:24;100644.13;;;33.79;37.31
13934;BME280;7039;52.168;9.866;2022-08-02T14:28:50;100642.63;;;34.50;35.85
13934;BME280;7039;52.168;9.866;2022-08-02T14:31:17;100640.84;;;34.56;35.45
13934;BME280;7039;52.168;9.866;2022-08-02T14:33:44;100642.31;;;33.36;36.72
13934;BME280;7039;52.168;9.866;2022-08-02T14:36:10;100636.16;;;32.34;38.10
13934;BME280;7039;52.168;9.866;2022-08-02T14:38:38;100632.06;;;32.63;37.38
13934;BME280;7039;52.168;9.866;2022-08-02T14:41:04;100632.47;;;32.92;37.71
13934;BME280;7039;52.168;9.866;2022-08-02T14:43:31;100633.50;;;33.66;37.36
13934;BME280;7039;52.168;9.866;2022-08-02T14:46:15;100635.72;;;33.87;36.65
13934;BME280;7039;52.168;9.866;2022-08-02T14:48:42;100626.03;;;33.98;36.80
13934;BME280;7039;52.168;9.866;2022-08-02T14:51:08;100620.41;;;32.94;37.16
13934;BME280;7039;52.168;9.866;2022-08-02T14:53:39;100625.97;;;32.36;38.33
13934;BME280;7039;52.168;9.866;2022-08-02T14:56:05;100624.06;;;32.75;37.52
13934;BME280;7039;52.168;9.866;2022-08-02T14:58:32;100621.28;;;32.88;37.14
13934;BME280;7039;52.168;9.866;2022-08-02T15:00:58;100613.34;;;32.68;38.52
13934;BME280;7039;52.168;9.866;2022-08-02T15:03:25;100609.88;;;32.54;37.80
13934;BME280;7039;52.168;9.866;2022-08-02T15:05:51;100621.00;;;31.88;38.75
13934;BME280;7039;52.168;9.866;2022-08-02T15:08:18;100620.84;;;32.66;37.45
13934;BME280;7039;52.168;9.866;2022-08-02T15:10:45;100627.50;;;33.20;37.55
13934;BME280;7039;52.168;9.866;2022-08-02T15:13:12;100613.66;;;32.78;37.63
13934;BME280;7039;52.168;9.866;2022-08-02T15:15:38;100626.28;;;33.60;36.96
13934;BME280;7039;52.168;9.866;2022-08-02T15:18:05;100616.66;;;33.64;36.76
13934;BME280;7039;52.168;9.866;2022-08-02T15:20:31;100613.88;;;34.49;35.25
13934;BME280;7039;52.168;9.866;2022-08-02T15:22:58;100615.00;;;34.72;34.90
13934;BME280;7039;52.168;9.866;2022-08-02T15:25:26;100612.19;;;34.79;34.09
13934;BME280;7039;52.168;9.866;2022-08-02T15:27:54;100602.91;;;35.33;34.89
13934;BME280;7039;52.168;9.866;2022-08-02T15:30:21;100598.66;;;35.02;35.30
13934;BME280;7039;52.168;9.866;2022-08-02T15:32:47;100592.88;;;34.99;33.37
13934;BME280;7039;52.168;9.866;2022-08-02T15:35:14;100600.50;;;33.76;34.97
13934;BME280;7039;52.168;9.866;2022-08-02T15:37:41;100603.28;;;33.07;35.70
13934;BME280;7039;52.168;9.866;2022-08-02T15:40:08;100605.88;;;33.20;35.55
13934;BME280;7039;52.168;9.866;2022-08-02T15:42:35;100598.84;;;32.87;35.94
13934;BME280;7039;52.168;9.866;2022-08-02T15:45:03;100597.91;;;33.00;36.52
13934;BME280;7039;52.168;9.866;2022-08-02T15:47:30;100601.63;;;33.24;36.63
13934;BME280;7039;52.168;9.866;2022-08-02T15:49:56;100609.47;;;33.33;36.17
13934;BME280;7039;52.168;9.866;2022-08-02T15:52:23;100600.66;;;33.62;35.50
13934;BME280;7039;52.168;9.866;2022-08-02T15:54:49;100600.38;;;34.01;34.90
13934;BME280;7039;52.168;9.866;2022-08-02T15:57:16;100606.50;;;34.26;34.35
13934;BME280;7039;52.168;9.866;2022-08-02T15:59:42;100590.47;;;33.76;35.38
13934;BME280;7039;52.168;9.866;2022-08-02T16:02:10;100597.28;;;34.46;34.69
13934;BME280;7039;52.168;9.866;2022-08-02T16:04:37;100598.91;;;35.01;34.40
13934;BME280;7039;52.168;9.866;2022-08-02T16:07:04;100591.47;;;35.08;33.92
13934;BME280;7039;52.168;9.866;2022-08-02T16:09:30;100589.25;;;35.17;34.30
13934;BME280;7039;52.168;9.866;2022-08-02T16:11:57;100590.41;;;35.09;34.62
13934;BME280;7039;52.168;9.866;2022-08-02T16:14:24;100582.78;;;34.52;34.78
13934;BME280;7039;52.168;9.866;2022-08-02T16:16:50;100590.91;;;33.92;35.40
13934;BME280;7039;52.168;9.866;2022-08-02T16:19:18;100596.09;;;34.53;35.25
13934;BME280;7039;52.168;9.866;2022-08-02T16:21:46;100587.59;;;35.16;34.63
13934;BME280;7039;52.168;9.866;2022-08-02T16:24:14;100580.75;;;34.78;35.25
13934;BME280;7039;52.168;9.866;2022-08-02T16:26:41;100579.66;;;34.79;35.22
13934;BME280;7039;52.168;9.866;2022-08-02T16:29:08;100581.53;;;34.24;35.43
13934;BME280;7039;52.168;9.866;2022-08-02T16:31:34;100581.78;;;34.65;35.31
13934;BME280;7039;52.168;9.866;2022-08-02T16:34:01;100581.09;;;35.05;34.15
13934;BME280;7039;52.168;9.866;2022-08-02T16:36:29;100580.50;;;35.62;34.31
13934;BME280;7039;52.168;9.866;2022-08-02T16:38:56;100568.59;;;34.92;33.91
13934;BME280;7039;52.168;9.866;2022-08-02T16:41:23;100565.47;;;34.41;34.55
13934;BME280;7039;52.168;9.866;2022-08-02T16:43:49;100566.59;;;33.73;35.58
13934;BME280;7039;52.168;9.866;2022-08-02T16:46:16;100568.84;;;33.76;36.32
13934;BME280;7039;52.168;9.866;2022-08-02T16:48:42;100561.88;;;33.68;36.38
13934;BME280;7039;52.168;9.866;2022-08-02T16:51:09;100566.13;;;34.06;36.14
13934;BME280;7039;52.168;9.866;2022-08-02T16:53:37;100562.53;;;34.55;35.56
13934;BME280;7039;52.168;9.866;2022-08-02T16:56:06;100562.84;;;34.04;35.96
13934;BME280;7039;52.168;9.866;2022-08-02T16:58:32;100563.78;;;33.98;35.63
13934;BME280;7039;52.168;9.866;2022-08-02T17:00:58;100560.56;;;33.89;36.26
13934;BME280;7039;52.168;9.866;2022-08-02T17:03:25;100556.69;;;33.97;35.34
13934;BME280;7039;52.168;9.866;2022-08-02T17:05:52;100555.66;;;33.06;36.46
13934;BME280;7039;52.168;9.866;2022-08-02T17:08:18;100555.66;;;32.81;37.82
13934;BME280;7039;52.168;9.866;2022-08-02T17:10:46;100558.16;;;32.25;37.75
13934;BME280;7039;52.168;9.866;2022-08-02T17:13:13;100554.47;;;32.45;37.48
13934;BME280;7039;52.168;9.866;2022-08-02T17:15:40;100549.72;;;32.72;37.67
13934;BME280;7039;52.168;9.866;2022-08-02T17:18:07;100553.56;;;32.83;37.80
13934;BME280;7039;52.168;9.866;2022-08-02T17:20:33;100552.97;;;33.24;36.80
13934;BME280;7039;52.168;9.866;2022-08-02T17:23:00;100551.28;;;33.67;36.55
13934;BME280;7039;52.168;9.866;2022-08-02T17:25:26;100549.34;;;33.86;36.60
13934;BME280;7039;52.168;9.866;2022-08-02T17:27:54;100550.69;;;33.95;35.53
13934;BME280;7039;52.168;9.866;2022-08-02T17:30:21;100547.75;;;33.97;36.17
13934;BME280;7039;52.168;9.866;2022-08-02T17:32:47;100551.56;;;33.77;35.56
13934;BME280;7039;52.168;9.866;2022-08-02T17:35:14;100544.78;;;33.49;35.74
13934;BME280;7039;52.168;9.866;2022-08-02T17:37:41;100559.00;;;33.01;35.74
13934;BME280;7039;52.168;9.866;2022-08-02T17:40:08;100551.25;;;32.86;36.23
13934;BME280;7039;52.168;9.866;2022-08-02T17:42:35;100551.78;;;32.95;36.38
13934;BME280;7039;52.168;9.866;2022-08-02T17:45:03;100543.84;;;32.57;37.35
13934;BME280;7039;52.168;9.866;2022-08-02T17:47:30;100552.38;;;32.47;37.71
13934;BME280;7039;52.168;9.866;2022-08-02T17:49:57;100551.75;;;32.52;37.15
13934;BME280;7039;52.168;9.866;2022-08-02T17:52:23;100555.41;;;32.89;37.49
13934;BME280;7039;52.168;9.866;2022-08-02T17:54:50;100560.78;;;33.14;36.77
13934;BME280;7039;52.168;9.866;2022-08-02T17:57:17;100546.56;;;32.50;36.80
13934;BME280;7039;52.168;9.866;2022-08-02T17:59:53;100548.69;;;31.65;38.52
13934;BME280;7039;52.168;9.866;2022-08-02T18:02:21;100546.97;;;31.05;39.45
13934;BME280;7039;52.168;9.866;2022-08-02T18:04:48;100546.31;;;30.30;41.19
13934;BME280;7039;52.168;9.866;2022-08-02T18:07:14;100536.28;;;29.55;42.04
13934;BME280;7039;52.168;9.866;2022-08-02T18:09:41;100541.72;;;29.27;43.38
13934;BME280;7039;52.168;9.866;2022-08-02T18:12:09;100536.13;;;28.94;43.87
13934;BME280;7039;52.168;9.866;2022-08-02T18:14:37;100538.19;;;28.70;44.15
13934;BME280;7039;52.168;9.866;2022-08-02T18:17:04;100539.88;;;28.50;44.49
13934;BME280;7039;52.168;9.866;2022-08-02T18:19:32;100538.47;;;28.32;45.11
13934;BME280;7039;52.168;9.866;2022-08-02T18:21:58;100533.53;;;28.15;45.21
13934;BME280;7039;52.168;9.866;2022-08-02T18:24:27;100544.13;;;28.01;46.73
13934;BME280;7039;52.168;9.866;2022-08-02T18:26:54;100535.91;;;27.88;48.71
13934;BME280;7039;52.168;9.866;2022-08-02T18:29:21;100534.81;;;27.82;48.92
13934;BME280;7039;52.168;9.866;2022-08-02T18:31:47;100532.13;;;27.67;49.23
13934;BME280;7039;52.168;9.866;2022-08-02T18:34:14;100530.66;;;27.65;49.11
13934;BME280;7039;52.168;9.866;2022-08-02T18:36:42;100541.69;;;27.55;49.50
13934;BME280;7039;52.168;9.866;2022-08-02T18:39:08;100539.38;;;27.37;49.73
13934;BME280;7039;52.168;9.866;2022-08-02T18:41:35;100539.94;;;27.33;50.32
13934;BME280;7039;52.168;9.866;2022-08-02T18:44:01;100546.84;;;27.27;50.84
13934;BME280;7039;52.168;9.866;2022-08-02T18:46:28;100544.16;;;27.27;50.67
13934;BME280;7039;52.168;9.866;2022-08-02T18:48:55;100542.25;;;27.21;50.89
13934;BME280;7039;52.168;9.866;2022-08-02T18:51:22;100541.47;;;27.12;51.00
13934;BME280;7039;52.168;9.866;2022-08-02T18:53:50;100541.25;;;27.14;51.14
13934;BME280;7039;52.168;9.866;2022-08-02T18:56:18;100539.34;;;27.07;51.11
13934;BME280;7039;52.168;9.866;2022-08-02T18:58:45;100544.94;;;26.98;52.19
13934;BME280;7039;52.168;9.866;2022-08-02T19:01:12;100551.38;;;26.88;51.54
13934;BME280;7039;52.168;9.866;2022-08-02T19:03:38;100553.56;;;26.70;53.02
13934;BME280;7039;52.168;9.866;2022-08-02T19:06:05;100553.66;;;26.54;53.24
13934;BME280;7039;52.168;9.866;2022-08-02T19:08:31;100546.53;;;26.46;53.50
13934;BME280;7039;52.168;9.866;2022-08-02T19:11:00;100548.63;;;26.36;54.67
13934;BME280;7039;52.168;9.866;2022-08-02T19:13:27;100539.34;;;26.23;54.95
13934;BME280;7039;52.168;9.866;2022-08-02T19:15:53;100555.44;;;26.15;55.61
13934;BME280;7039;52.168;9.866;2022-08-02T19:18:20;100551.31;;;26.04;56.32